sensor_id;sensor_type;location;lat;lon;timestamp;P1;durP1;ratioP1;P2;durP2;ratioP2
44995;SDS011;30729;49.486;10.792;2024-03-17T15:22:47;11.07;;;5.38;;
44995;SDS011;30729;49.486;10.792;2024-03-17T15:25:16;8.95;;;5.30;;
44995;SDS011;30729;49.486;10.792;2024-03-17T15:27:42;10.45;;;5.43;;
44995;SDS011;30729;49.486;10.792;2024-03-17T15:30:16;9.88;;;5.25;;
44995;SDS011;30729;49.486;10.792;2024-03-17T15:32:47;8.65;;;5.03;;
44995;SDS011;77360;49.470;11.004;2024-03-17T15:35:14;10.80;;;5.43;;
44995;SDS011;77360;49.470;11.004;2024-03-17T15:37:40;10.90;;;4.90;;
44995;SDS011;77360;49.470;11.004;2024-03-17T15:40:07;11.02;;;5.88;;
44995;SDS011;77360;49.470;11.004;2024-03-17T15:42:41;10.65;;;5.07;;
44995;SDS011;77360;49.470;11.004;2024-03-17T15:45:07;10.27;;;4.70;;
44995;SDS011;77360;49.470;11.004;2024-03-17T15:47:32;10.05;;;5.10;;
44995;SDS011;77360;49.470;11.004;2024-03-17T15:49:58;11.07;;;5.40;;
44995;SDS011;77360;49.470;11.004;2024-03-17T15:52:23;10.68;;;5.65;;
44995;SDS011;77360;49.470;11.004;2024-03-17T15:54:49;8.10;;;4.72;;
44995;SDS011;77360;49.470;11.004;2024-03-17T15:57:14;10.25;;;4.93;;
44995;SDS011;77360;49.470;11.004;2024-03-17T15:59:39;11.75;;;5.75;;
44995;SDS011;77360;49.470;11.004;2024-03-17T16:02:05;9.77;;;5.00;;
44995;SDS011;77360;49.470;11.004;2024-03-17T16:04:35;10.43;;;5.07;;
44995;SDS011;77360;49.470;11.004;2024-03-17T16:07:00;9.07;;;4.85;;
44995;SDS011;77360;49.470;11.004;2024-03-17T16:09:27;9.07;;;5.00;;
44995;SDS011;77360;49.470;11.004;2024-03-17T16:11:53;9.50;;;4.97;;
44995;SDS011;77360;49.470;11.004;2024-03-17T16:14:18;10.95;;;5.50;;
44995;SDS011;77360;49.470;11.004;2024-03-17T16:16:44;10.45;;;4.75;;
44995;SDS011;77360;49.470;11.004;2024-03-17T16:19:10;9.30;;;4.82;;
44995;SDS011;77360;49.470;11.004;2024-03-17T16:21:35;10.45;;;5.13;;
44995;SDS011;77360;49.470;11.004;2024-03-17T16:24:16;9.23;;;4.47;;
44995;SDS011;77360;49.470;11.004;2024-03-17T16:26:41;9.70;;;5.60;;
44995;SDS011;77360;49.470;11.004;2024-03-17T16:29:13;12.18;;;5.30;;
44995;SDS011;77360;49.470;11.004;2024-03-17T16:31:41;9.05;;;5.03;;
44995;SDS011;77360;49.470;11.004;2024-03-17T16:34:07;9.63;;;5.18;;
44995;SDS011;77360;49.470;11.004;2024-03-17T16:36:33;9.02;;;5.07;;
44995;SDS011;77360;49.470;11.004;2024-03-17T16:39:04;10.38;;;6.13;;
44995;SDS011;77360;49.470;11.004;2024-03-17T16:41:31;11.07;;;4.90;;
44995;SDS011;77360;49.470;11.004;2024-03-17T16:49:30;11.40;;;4.78;;
44995;SDS011;77360;49.470;11.004;2024-03-17T16:51:57;9.07;;;4.43;;
44995;SDS011;77360;49.470;11.004;2024-03-17T16:54:23;8.60;;;5.32;;
44995;SDS011;77360;49.470;11.004;2024-03-17T16:56:49;11.15;;;5.18;;
44995;SDS011;77360;49.470;11.004;2024-03-17T16:59:14;10.25;;;5.22;;
44995;SDS011;77360;49.470;11.004;2024-03-17T17:01:40;10.02;;;5.00;;
44995;SDS011;77360;49.470;11.004;2024-03-17T17:04:06;10.10;;;5.28;;
44995;SDS011;77360;49.470;11.004;2024-03-17T17:06:33;11.43;;;5.03;;
44995;SDS011;77360;49.470;11.004;2024-03-17T17:08:58;10.18;;;5.57;;
44995;SDS011;77360;49.470;11.004;2024-03-17T17:11:23;10.88;;;4.75;;
44995;SDS011;77360;49.470;11.004;2024-03-17T17:13:50;11.98;;;6.00;;
44995;SDS011;77360;49.470;11.004;2024-03-17T17:16:15;10.07;;;5.38;;
44995;SDS011;77360;49.470;11.004;2024-03-17T17:21:17;9.65;;;4.85;;
44995;SDS011;77360;49.470;11.004;2024-03-17T17:23:43;8.85;;;4.75;;
44995;SDS011;77360;49.470;11.004;2024-03-17T17:26:11;11.05;;;4.68;;
44995;SDS011;77360;49.470;11.004;2024-03-17T17:28:40;9.70;;;4.82;;
44995;SDS011;77360;49.470;11.004;2024-03-17T17:31:05;12.25;;;5.43;;
44995;SDS011;77360;49.470;11.004;2024-03-17T17:33:31;10.00;;;4.80;;
44995;SDS011;77360;49.470;11.004;2024-03-17T17:36:03;11.25;;;5.50;;
44995;SDS011;77360;49.470;11.004;2024-03-17T17:38:29;10.13;;;4.60;;
44995;SDS011;77360;49.470;11.004;2024-03-17T17:40:55;11.07;;;5.32;;
44995;SDS011;77360;49.470;11.004;2024-03-17T17:43:20;9.10;;;5.30;;
44995;SDS011;77360;49.470;11.004;2024-03-17T17:45:45;9.65;;;6.10;;
44995;SDS011;77360;49.470;11.004;2024-03-17T17:48:10;12.43;;;6.10;;
44995;SDS011;77360;49.470;11.004;2024-03-17T17:50:36;11.30;;;6.68;;
44995;SDS011;77360;49.470;11.004;2024-03-17T17:53:01;11.95;;;5.80;;
44995;SDS011;77360;49.470;11.004;2024-03-17T17:55:28;11.50;;;6.00;;
44995;SDS011;77360;49.470;11.004;2024-03-17T17:57:53;11.00;;;6.05;;
44995;SDS011;77360;49.470;11.004;2024-03-17T18:00:19;11.25;;;6.53;;
44995;SDS011;77360;49.470;11.004;2024-03-17T18:02:44;11.73;;;6.38;;
44995;SDS011;77360;49.470;11.004;2024-03-17T18:05:10;13.95;;;6.60;;
44995;SDS011;77360;49.470;11.004;2024-03-17T18:07:36;13.57;;;6.10;;
44995;SDS011;77360;49.470;11.004;2024-03-17T18:10:01;10.82;;;5.60;;
44995;SDS011;77360;49.470;11.004;2024-03-17T18:12:26;10.93;;;6.50;;
44995;SDS011;77360;49.470;11.004;2024-03-17T18:14:53;12.15;;;5.97;;
44995;SDS011;77360;49.470;11.004;2024-03-17T18:17:19;15.52;;;6.03;;
44995;SDS011;77360;49.470;11.004;2024-03-17T18:19:45;11.40;;;4.90;;
44995;SDS011;77360;49.470;11.004;2024-03-17T18:22:10;11.65;;;5.75;;
44995;SDS011;77360;49.470;11.004;2024-03-17T18:24:36;12.27;;;5.95;;
44995;SDS011;77360;49.470;11.004;2024-03-17T18:27:01;11.88;;;5.65;;
44995;SDS011;77360;49.470;11.004;2024-03-17T18:29:26;9.75;;;5.78;;
44995;SDS011;77360;49.470;11.004;2024-03-17T18:31:51;10.50;;;5.88;;
44995;SDS011;77360;49.470;11.004;2024-03-17T18:34:17;11.00;;;5.97;;
44995;SDS011;77360;49.470;11.004;2024-03-17T18:36:42;13.43;;;5.85;;
44995;SDS011;77360;49.470;11.004;2024-03-17T18:39:08;11.32;;;5.82;;
44995;SDS011;77360;49.470;11.004;2024-03-17T18:41:34;11.50;;;5.75;;
44995;SDS011;77360;49.470;11.004;2024-03-17T18:43:59;16.92;;;6.28;;
44995;SDS011;77360;49.470;11.004;2024-03-17T18:46:24;11.20;;;6.05;;
44995;SDS011;77360;49.470;11.004;2024-03-17T18:48:50;13.45;;;6.60;;
44995;SDS011;77360;49.470;11.004;2024-03-17T18:51:16;12.65;;;6.35;;
44995;SDS011;77360;49.470;11.004;2024-03-17T18:53:42;13.23;;;6.70;;
44995;SDS011;77360;49.470;11.004;2024-03-17T18:56:08;11.93;;;6.38;;
44995;SDS011;77360;49.470;11.004;2024-03-17T18:58:34;13.50;;;6.40;;
44995;SDS011;77360;49.470;11.004;2024-03-17T19:01:00;12.68;;;6.90;;
44995;SDS011;77360;49.470;11.004;2024-03-17T19:03:27;12.93;;;6.63;;
44995;SDS011;77360;49.470;11.004;2024-03-17T19:05:53;11.32;;;6.15;;
44995;SDS011;77360;49.470;11.004;2024-03-17T19:08:23;11.93;;;6.30;;
44995;SDS011;77360;49.470;11.004;2024-03-17T19:10:52;12.77;;;6.43;;
44995;SDS011;77360;49.470;11.004;2024-03-17T19:13:19;13.38;;;6.80;;
44995;SDS011;77360;49.470;11.004;2024-03-17T19:15:45;10.77;;;5.60;;
44995;SDS011;77360;49.470;11.004;2024-03-17T19:18:10;12.85;;;6.70;;
44995;SDS011;77360;49.470;11.004;2024-03-17T19:20:35;12.38;;;6.90;;
44995;SDS011;77360;49.470;11.004;2024-03-17T19:23:01;13.93;;;7.45;;
44995;SDS011;77360;49.470;11.004;2024-03-17T19:25:26;14.07;;;7.28;;
44995;SDS011;77360;49.470;11.004;2024-03-17T19:27:51;14.52;;;7.35;;
44995;SDS011;77360;49.470;11.004;2024-03-17T19:30:17;15.60;;;7.85;;
44995;SDS011;77360;49.470;11.004;2024-03-17T19:32:44;15.20;;;7.55;;
44995;SDS011;77360;49.470;11.004;2024-03-17T19:35:10;17.20;;;8.68;;
44995;SDS011;77360;49.470;11.004;2024-03-17T19:37:35;20.15;;;8.10;;
44995;SDS011;77360;49.470;11.004;2024-03-17T19:40:02;14.82;;;7.80;;
44995;SDS011;77360;49.470;11.004;2024-03-17T19:42:29;14.13;;;7.50;;
44995;SDS011;77360;49.470;11.004;2024-03-17T19:44:54;12.65;;;7.30;;
44995;SDS011;77360;49.470;11.004;2024-03-17T19:47:20;17.10;;;8.75;;
44995;SDS011;77360;49.470;11.004;2024-03-17T19:49:49;16.38;;;8.85;;
44995;SDS011;77360;49.470;11.004;2024-03-17T19:52:15;13.43;;;8.52;;
44995;SDS011;77360;49.470;11.004;2024-03-17T19:54:40;17.98;;;12.93;;
44995;SDS011;77360;49.470;11.004;2024-03-17T19:57:05;16.02;;;8.60;;
44995;SDS011;77360;49.470;11.004;2024-03-17T19:59:31;15.38;;;8.85;;
44995;SDS011;77360;49.470;11.004;2024-03-17T20:01:56;13.23;;;6.88;;
44995;SDS011;77360;49.470;11.004;2024-03-17T20:04:21;12.10;;;6.90;;
44995;SDS011;77360;49.470;11.004;2024-03-17T20:06:47;15.10;;;7.40;;
44995;SDS011;77360;49.470;11.004;2024-03-17T20:09:13;17.27;;;7.53;;
44995;SDS011;77360;49.470;11.004;2024-03-17T20:11:39;12.18;;;6.97;;
44995;SDS011;77360;49.470;11.004;2024-03-17T20:14:05;14.52;;;8.68;;
44995;SDS011;77360;49.470;11.004;2024-03-17T20:16:32;15.40;;;7.78;;
44995;SDS011;77360;49.470;11.004;2024-03-17T20:19:02;15.80;;;8.23;;
44995;SDS011;77360;49.470;11.004;2024-03-17T20:21:27;18.95;;;9.73;;
44995;SDS011;77360;49.470;11.004;2024-03-17T20:23:52;16.55;;;8.70;;
44995;SDS011;77360;49.470;11.004;2024-03-17T20:26:18;16.23;;;9.40;;
44995;SDS011;77360;49.470;11.004;2024-03-17T20:28:44;21.77;;;13.27;;
44995;SDS011;77360;49.470;11.004;2024-03-17T20:31:14;18.50;;;11.13;;
44995;SDS011;77360;49.470;11.004;2024-03-17T20:33:41;16.65;;;11.25;;
44995;SDS011;77360;49.470;11.004;2024-03-17T20:36:06;20.05;;;11.38;;
44995;SDS011;77360;49.470;11.004;2024-03-17T20:38:33;18.50;;;11.07;;
44995;SDS011;77360;49.470;11.004;2024-03-17T20:40:58;20.65;;;10.27;;
44995;SDS011;77360;49.470;11.004;2024-03-17T20:43:23;18.15;;;10.30;;
44995;SDS011;77360;49.470;11.004;2024-03-17T20:45:48;19.23;;;10.93;;
44995;SDS011;77360;49.470;11.004;2024-03-17T20:48:14;16.17;;;11.90;;
44995;SDS011;77360;49.470;11.004;2024-03-17T20:50:39;16.35;;;10.90;;
44995;SDS011;77360;49.470;11.004;2024-03-17T20:53:04;15.45;;;9.07;;
44995;SDS011;77360;49.470;11.004;2024-03-17T20:55:32;13.32;;;8.35;;
44995;SDS011;77360;49.470;11.004;2024-03-17T20:57:57;14.85;;;8.88;;
44995;SDS011;77360;49.470;11.004;2024-03-17T21:00:23;16.75;;;8.98;;
44995;SDS011;77360;49.470;11.004;2024-03-17T21:02:51;14.60;;;9.15;;
44995;SDS011;77360;49.470;11.004;2024-03-17T21:05:17;19.02;;;10.77;;
44995;SDS011;77360;49.470;11.004;2024-03-17T21:07:43;14.73;;;9.05;;
44995;SDS011;77360;49.470;11.004;2024-03-17T21:10:09;15.52;;;9.25;;
44995;SDS011;77360;49.470;11.004;2024-03-17T21:12:36;14.80;;;10.13;;
44995;SDS011;77360;49.470;11.004;2024-03-17T21:15:02;15.70;;;8.75;;
44995;SDS011;77360;49.470;11.004;2024-03-17T21:17:28;15.07;;;9.68;;
44995;SDS011;77360;49.470;11.004;2024-03-17T21:19:53;21.40;;;9.50;;
44995;SDS011;77360;49.470;11.004;2024-03-17T21:22:19;17.40;;;9.73;;
44995;SDS011;77360;49.470;11.004;2024-03-17T21:24:46;18.80;;;10.07;;
44995;SDS011;77360;49.470;11.004;2024-03-17T21:27:12;15.57;;;9.68;;
44995;SDS011;77360;49.470;11.004;2024-03-17T21:29:38;21.38;;;11.30;;
44995;SDS011;77360;49.470;11.004;2024-03-17T21:32:03;17.67;;;10.10;;
44995;SDS011;77360;49.470;11.004;2024-03-17T21:34:28;16.05;;;9.43;;
44995;SDS011;77360;49.470;11.004;2024-03-17T21:36:53;17.08;;;10.20;;
44995;SDS011;77360;49.470;11.004;2024-03-17T21:39:19;16.52;;;9.77;;
44995;SDS011;77360;49.470;11.004;2024-03-17T21:41:45;17.77;;;9.95;;
44995;SDS011;77360;49.470;11.004;2024-03-17T21:44:10;17.90;;;10.77;;
44995;SDS011;77360;49.470;11.004;2024-03-17T21:46:36;19.35;;;9.90;;
44995;SDS011;77360;49.470;11.004;2024-03-17T21:49:01;18.85;;;10.82;;
44995;SDS011;77360;49.470;11.004;2024-03-17T21:51:27;20.88;;;10.55;;
44995;SDS011;77360;49.470;11.004;2024-03-17T21:53:52;27.23;;;13.38;;
44995;SDS011;77360;49.470;11.004;2024-03-17T21:56:18;20.67;;;12.73;;
44995;SDS011;77360;49.470;11.004;2024-03-17T21:58:43;22.88;;;12.40;;
44995;SDS011;77360;49.470;11.004;2024-03-17T22:01:08;20.65;;;11.98;;
44995;SDS011;77360;49.470;11.004;2024-03-17T22:03:34;21.92;;;11.98;;
44995;SDS011;77360;49.470;11.004;2024-03-17T22:05:59;21.92;;;12.48;;
44995;SDS011;77360;49.470;11.004;2024-03-17T22:08:26;21.63;;;12.20;;
44995;SDS011;77360;49.470;11.004;2024-03-17T22:10:52;22.77;;;12.80;;
44995;SDS011;77360;49.470;11.004;2024-03-17T22:13:24;21.23;;;13.15;;
44995;SDS011;77360;49.470;11.004;2024-03-17T22:15:56;20.13;;;12.82;;
44995;SDS011;77360;49.470;11.004;2024-03-17T22:18:23;22.15;;;12.50;;
44995;SDS011;77360;49.470;11.004;2024-03-17T22:23:19;20.45;;;11.23;;
44995;SDS011;77360;49.470;11.004;2024-03-17T22:25:51;19.48;;;12.40;;
44995;SDS011;77360;49.470;11.004;2024-03-17T22:28:24;19.77;;;10.82;;
44995;SDS011;77360;49.470;11.004;2024-03-17T22:30:53;24.02;;;11.60;;
44995;SDS011;77360;49.470;11.004;2024-03-17T22:33:26;18.60;;;11.18;;
44995;SDS011;77360;49.470;11.004;2024-03-17T22:38:29;22.25;;;11.00;;
44995;SDS011;77360;49.470;11.004;2024-03-17T22:43:32;16.00;;;11.00;;
44995;SDS011;77360;49.470;11.004;2024-03-17T22:45:59;17.73;;;10.73;;
44995;SDS011;77360;49.470;11.004;2024-03-17T22:48:26;17.50;;;10.48;;
44995;SDS011;77360;49.470;11.004;2024-03-17T22:50:55;18.25;;;10.55;;
44995;SDS011;77360;49.470;11.004;2024-03-17T22:53:21;23.88;;;11.18;;
44995;SDS011;77360;49.470;11.004;2024-03-17T22:55:47;25.25;;;12.55;;
44995;SDS011;77360;49.470;11.004;2024-03-17T22:58:17;22.33;;;14.45;;
44995;SDS011;77360;49.470;11.004;2024-03-17T23:00:43;22.20;;;12.00;;
44995;SDS011;77360;49.470;11.004;2024-03-17T23:03:16;24.08;;;12.00;;
44995;SDS011;77360;49.470;11.004;2024-03-17T23:05:45;23.77;;;12.18;;
44995;SDS011;77360;49.470;11.004;2024-03-17T23:08:15;24.20;;;10.73;;
44995;SDS011;77360;49.470;11.004;2024-03-17T23:10:41;21.50;;;11.52;;
44995;SDS011;77360;49.470;11.004;2024-03-17T23:13:08;19.67;;;9.82;;
44995;SDS011;77360;49.470;11.004;2024-03-17T23:15:34;17.65;;;9.70;;
44995;SDS011;77360;49.470;11.004;2024-03-17T23:18:00;22.13;;;12.27;;
44995;SDS011;77360;49.470;11.004;2024-03-17T23:20:26;20.40;;;11.05;;
44995;SDS011;77360;49.470;11.004;2024-03-17T23:22:51;20.27;;;10.77;;
44995;SDS011;77360;49.470;11.004;2024-03-17T23:25:16;19.30;;;10.93;;
44995;SDS011;77360;49.470;11.004;2024-03-17T23:27:42;16.83;;;10.90;;
44995;SDS011;77360;49.470;11.004;2024-03-17T23:30:08;21.58;;;11.00;;
44995;SDS011;77360;49.470;11.004;2024-03-17T23:32:36;21.13;;;11.40;;
44995;SDS011;77360;49.470;11.004;2024-03-17T23:35:02;18.25;;;10.90;;
44995;SDS011;77360;49.470;11.004;2024-03-17T23:37:28;19.02;;;11.52;;
44995;SDS011;77360;49.470;11.004;2024-03-17T23:39:58;18.67;;;11.18;;
44995;SDS011;77360;49.470;11.004;2024-03-17T23:42:25;18.38;;;10.15;;
44995;SDS011;77360;49.470;11.004;2024-03-17T23:44:51;19.95;;;10.15;;
44995;SDS011;77360;49.470;11.004;2024-03-17T23:47:16;17.98;;;10.45;;
44995;SDS011;77360;49.470;11.004;2024-03-17T23:49:42;16.08;;;10.40;;
44995;SDS011;77360;49.470;11.004;2024-03-17T23:52:08;17.80;;;10.90;;
44995;SDS011;77360;49.470;11.004;2024-03-17T23:54:34;20.27;;;10.63;;
44995;SDS011;77360;49.470;11.004;2024-03-17T23:57:00;20.05;;;11.52;;
44995;SDS011;77360;49.470;11.004;2024-03-17T23:59:25;21.83;;;10.82;;
